createdAt,value
2019-04-01T00:01:36.893Z,101881.64
2019-04-01T00:04:01.284Z,101887.44
2019-04-01T00:06:25.707Z,101892.11
2019-04-01T00:08:50.093Z,101889.19
2019-04-01T00:11:14.519Z,101889.48
2019-04-01T00:13:38.907Z,101894.97
2019-04-01T00:16:03.315Z,101889.77
2019-04-01T00:18:27.709Z,101890.49
2019-04-01T00:20:52.115Z,101888.64
2019-04-01T00:23:16.507Z,101887.02
2019-04-01T00:25:40.911Z,101889.69
2019-04-01T00:28:05.293Z,101887.76
2019-04-01T00:30:29.718Z,101885.06
2019-04-01T00:32:54.104Z,101885.16
2019-04-01T00:35:18.555Z,101888.83
2019-04-01T00:37:42.962Z,101890.76
2019-04-01T00:40:08.490Z,101892.06
2019-04-01T00:42:34.619Z,101898.91
2019-04-01T00:44:59.006Z,101889.73
2019-04-01T00:47:23.416Z,101890.19
2019-04-01T00:49:47.801Z,101896.47
2019-04-01T00:52:12.212Z,101897.76
2019-04-01T00:54:36.595Z,101897.16
2019-04-01T00:57:01.012Z,101891.89
2019-04-01T00:59:25.411Z,101891.16
2019-04-01T01:01:49.817Z,101889.53
2019-04-01T01:04:14.212Z,101892.70
2019-04-01T01:06:38.629Z,101891.23
2019-04-01T01:09:04.787Z,101887.57
2019-04-01T01:11:29.263Z,101885.20
2019-04-01T01:13:53.631Z,101884.81
2019-04-01T01:16:18.066Z,101887.28
2019-04-01T01:18:42.443Z,101891.55
2019-04-01T01:21:06.831Z,101885.55
2019-04-01T01:23:31.239Z,101887.28
2019-04-01T01:25:55.651Z,101887.57
2019-04-01T01:28:20.058Z,101886.58
2019-04-01T01:30:44.447Z,101888.09
2019-04-01T01:33:08.851Z,101886.35
2019-04-01T01:35:34.289Z,101892.70
2019-04-01T01:37:58.708Z,101890.80
2019-04-01T01:40:23.128Z,101896.84
2019-04-01T01:42:47.525Z,101896.03
2019-04-01T01:45:12.004Z,101896.92
2019-04-01T01:47:36.546Z,101893.41
2019-04-01T01:50:00.925Z,101896.61
2019-04-01T01:52:25.343Z,101898.94
2019-04-01T01:54:51.265Z,101896.69
2019-04-01T01:57:15.674Z,101894.55
2019-04-01T01:59:40.070Z,101897.23
2019-04-01T02:02:04.784Z,101900.29
2019-04-01T02:04:29.240Z,101891.80
2019-04-01T02:06:53.710Z,101888.88
2019-04-01T02:09:18.124Z,101886.91
2019-04-01T02:11:42.535Z,101895.70
2019-04-01T02:14:06.947Z,101895.77
2019-04-01T02:16:31.399Z,101888.16
2019-04-01T02:18:55.804Z,101887.59
2019-04-01T02:21:20.193Z,101890.21
2019-04-01T02:23:44.595Z,101893.98
2019-04-01T02:26:09.007Z,101889.92
2019-04-01T02:28:33.477Z,101889.43
2019-04-01T02:30:57.862Z,101882.98
2019-04-01T02:33:22.305Z,101891.85
2019-04-01T02:35:46.704Z,101898.05
2019-04-01T02:38:11.132Z,101893.56
2019-04-01T02:40:35.531Z,101892.03
2019-04-01T02:43:00.072Z,101886.47
2019-04-01T02:45:24.480Z,101892.33
2019-04-01T02:47:48.964Z,101891.30
2019-04-01T02:50:13.707Z,101888.64
2019-04-01T02:52:38.145Z,101888.97
2019-04-01T02:55:06.707Z,101890.81
2019-04-01T02:57:28.660Z,101888.92
2019-04-01T02:59:53.166Z,101890.59
2019-04-01T03:02:17.548Z,101882.19
2019-04-01T03:04:41.943Z,101874.59
2019-04-01T03:07:06.407Z,101884.06
2019-04-01T03:09:30.813Z,101887.56
2019-04-01T03:11:55.220Z,101882.13
2019-04-01T03:14:19.656Z,101875.39
2019-04-01T03:16:44.055Z,101877.77
2019-04-01T03:19:08.876Z,101880.03
2019-04-01T03:21:33.356Z,101873.94
2019-04-01T03:23:57.788Z,101874.67
2019-04-01T03:26:22.209Z,101883.50
2019-04-01T03:28:46.747Z,101884.87
2019-04-01T03:31:11.184Z,101874.26
2019-04-01T03:33:35.733Z,101881.99
2019-04-01T03:36:00.161Z,101883.20
2019-04-01T03:38:27.909Z,101878.97
2019-04-01T03:40:50.687Z,101876.50
2019-04-01T03:43:15.081Z,101881.34
2019-04-01T03:45:39.485Z,101885.75
2019-04-01T03:48:03.949Z,101885.84
2019-04-01T03:50:28.401Z,101881.20
2019-04-01T03:52:52.780Z,101883.86
2019-04-01T03:55:17.207Z,101890.02
2019-04-01T03:57:41.721Z,101890.54
2019-04-01T04:00:09.060Z,101889.59
2019-04-01T04:02:33.459Z,101891.69
2019-04-01T04:04:57.866Z,101894.34
2019-04-01T04:07:22.259Z,101887.27
2019-04-01T04:09:46.645Z,101885.33
2019-04-01T04:12:11.056Z,101886.18
2019-04-01T04:14:35.509Z,101888.83
2019-04-01T04:16:59.923Z,101889.10
2019-04-01T04:19:24.394Z,101891.52
2019-04-01T04:21:48.874Z,101888.53
2019-04-01T04:24:13.261Z,101894.19
2019-04-01T04:26:37.665Z,101895.72
2019-04-01T04:29:02.223Z,101888.21
2019-04-01T04:31:26.599Z,101894.42
2019-04-01T04:33:50.997Z,101893.81
2019-04-01T04:36:15.548Z,101897.36
2019-04-01T04:38:39.940Z,101900.17
2019-04-01T04:41:04.406Z,101900.38
2019-04-01T04:43:28.803Z,101892.89
2019-04-01T04:45:53.256Z,101896.48
2019-04-01T04:48:17.770Z,101904.77
2019-04-01T04:50:42.157Z,101897.20
2019-04-01T04:53:06.624Z,101902.41
2019-04-01T04:55:31.031Z,101902.33
2019-04-01T04:57:55.447Z,101896.84
2019-04-01T05:00:19.908Z,101903.66
2019-04-01T05:02:44.400Z,101897.88
2019-04-01T05:05:08.925Z,101906.71
2019-04-01T05:07:33.337Z,101909.25
2019-04-01T05:09:57.731Z,101914.66
2019-04-01T05:12:22.140Z,101915.24
2019-04-01T05:14:46.537Z,101914.09
2019-04-01T05:17:10.962Z,101915.37
2019-04-01T05:19:35.345Z,101915.77
2019-04-01T05:22:00.218Z,101922.78
2019-04-01T05:24:26.543Z,101923.44
2019-04-01T05:26:52.543Z,101924.53
2019-04-01T05:29:20.293Z,101924.14
2019-04-01T05:31:46.675Z,101932.91
2019-04-01T05:34:13.877Z,101931.61
2019-04-01T05:36:38.420Z,101937.19
2019-04-01T05:39:03.254Z,101929.88
2019-04-01T05:41:27.710Z,101933.06
2019-04-01T05:43:52.856Z,101933.50
2019-04-01T05:46:17.380Z,101933.45
2019-04-01T05:48:42.120Z,101937.90
2019-04-01T05:51:06.633Z,101938.20
2019-04-01T05:53:31.181Z,101939.53
2019-04-01T05:55:55.915Z,101946.78
2019-04-01T05:58:20.319Z,101946.50
2019-04-01T06:00:46.483Z,101942.66
2019-04-01T06:03:11.043Z,101949.73
2019-04-01T06:05:35.431Z,101955.04
2019-04-01T06:07:59.906Z,101956.70
2019-04-01T06:10:24.299Z,101946.20
2019-04-01T06:12:49.148Z,101949.39
2019-04-01T06:15:13.772Z,101949.08
2019-04-01T06:17:38.178Z,101950.77
2019-04-01T06:20:02.634Z,101955.56
2019-04-01T06:22:27.455Z,101951.42
2019-04-01T06:24:52.200Z,101956.20
2019-04-01T06:27:16.902Z,101956.83
2019-04-01T06:29:41.295Z,101954.92
2019-04-01T06:32:05.692Z,101954.15
2019-04-01T06:34:30.968Z,101959.63
2019-04-01T06:36:55.587Z,101958.67
2019-04-01T06:39:19.997Z,101962.97
2019-04-01T06:41:44.441Z,101963.58
2019-04-01T06:44:08.850Z,101965.04
2019-04-01T06:46:33.400Z,101959.41
2019-04-01T06:48:57.993Z,101957.46
2019-04-01T06:51:22.470Z,101961.77
2019-04-01T06:53:46.969Z,101962.47
2019-04-01T06:56:11.518Z,101915.08
2019-04-01T06:58:36.809Z,101965.28
2019-04-01T07:01:01.386Z,101961.64
2019-04-01T07:03:25.940Z,101961.55
2019-04-01T07:05:50.510Z,101966.30
2019-04-01T07:08:15.149Z,101960.47
2019-04-01T07:10:39.825Z,101956.33
2019-04-01T07:13:04.352Z,101964.12
2019-04-01T07:15:28.906Z,101967.36
2019-04-01T07:17:53.466Z,101966.72
2019-04-01T07:20:17.966Z,101961.61
2019-04-01T07:22:42.511Z,101963.45
2019-04-01T07:25:07.183Z,101960.05
2019-04-01T07:27:31.576Z,101960.05
2019-04-01T07:29:56.139Z,101965.20
2019-04-01T07:32:20.538Z,101961.87
2019-04-01T07:34:45.126Z,101963.70
2019-04-01T07:37:09.670Z,101964.22
2019-04-01T07:39:34.346Z,101962.91
2019-04-01T07:41:59.188Z,101961.28
2019-04-01T07:44:23.750Z,101964.44
2019-04-01T07:46:48.251Z,101962.75
2019-04-01T07:49:12.801Z,101959.77
2019-04-01T07:51:38.627Z,101963.19
2019-04-01T07:54:03.303Z,101960.13
2019-04-01T07:56:28.162Z,101961.27
2019-04-01T07:58:52.718Z,101955.07
2019-04-01T08:01:17.290Z,101955.92
2019-04-01T08:03:42.159Z,101953.09
2019-04-01T08:06:06.772Z,101960.00
2019-04-01T08:08:31.321Z,101950.15
2019-04-01T08:10:55.743Z,101950.44
2019-04-01T08:13:20.155Z,101945.47
2019-04-01T08:15:44.661Z,101957.61
2019-04-01T08:18:09.206Z,101952.66
2019-04-01T08:20:33.752Z,101957.48
2019-04-01T08:22:58.263Z,101952.59
2019-04-01T08:25:22.742Z,101955.45
2019-04-01T08:27:47.400Z,101962.44
2019-04-01T08:30:12.056Z,101954.92
2019-04-01T08:32:36.835Z,101947.64
2019-04-01T08:35:01.315Z,101950.34
2019-04-01T08:37:25.887Z,101959.19
2019-04-01T08:39:50.865Z,101950.89
2019-04-01T08:42:16.444Z,101950.77
2019-04-01T08:44:41.281Z,101941.44
2019-04-01T08:47:05.843Z,101942.10
2019-04-01T08:49:30.246Z,101941.70
2019-04-01T08:51:55.175Z,101936.99
2019-04-01T08:54:19.673Z,101933.94
2019-04-01T08:56:44.257Z,101933.41
2019-04-01T08:59:08.807Z,101937.69
2019-04-01T09:01:35.423Z,101929.30
2019-04-01T09:03:59.655Z,101929.98
2019-04-01T09:06:24.124Z,101932.05
2019-04-01T09:08:49.605Z,101928.37
2019-04-01T09:11:14.260Z,101927.17
2019-04-01T09:13:39.335Z,101922.44
2019-04-01T09:16:04.385Z,101921.03
2019-04-01T09:18:28.818Z,101921.84
2019-04-01T09:20:53.307Z,101912.76
2019-04-01T09:23:17.811Z,101914.52
2019-04-01T09:25:42.291Z,101915.10
2019-04-01T09:28:06.885Z,101907.77
2019-04-01T09:30:31.368Z,101906.40
2019-04-01T09:32:55.794Z,101902.83
2019-04-01T09:35:20.188Z,101902.37
2019-04-01T09:37:44.670Z,101903.94
2019-04-01T09:40:09.524Z,101901.19
2019-04-01T09:42:34.009Z,101905.53
2019-04-01T09:44:58.388Z,101904.69
2019-04-01T09:47:22.858Z,101895.28
2019-04-01T09:49:47.330Z,101881.88
2019-04-01T09:52:11.778Z,101887.25
2019-04-01T09:54:36.265Z,101887.58
2019-04-01T09:57:00.675Z,101884.52
2019-04-01T09:59:25.167Z,101877.23
2019-04-01T10:01:49.565Z,101869.61
2019-04-01T10:04:14.061Z,101883.02
2019-04-01T10:06:38.457Z,101871.94
2019-04-01T10:09:04.529Z,101873.28
2019-04-01T10:11:28.938Z,101868.61
2019-04-01T10:13:53.396Z,101866.75
2019-04-01T10:16:17.826Z,101866.55
2019-04-01T10:18:42.228Z,101862.46
2019-04-01T10:21:06.628Z,101861.72
2019-04-01T10:23:31.060Z,101858.14
2019-04-01T10:25:55.463Z,101861.98
2019-04-01T10:28:19.975Z,101844.42
2019-04-01T10:30:44.449Z,101848.42
2019-04-01T10:33:09.236Z,101846.87
2019-04-01T10:35:33.667Z,101838.30
2019-04-01T10:37:58.163Z,101838.38
2019-04-01T10:40:22.665Z,101838.47
2019-04-01T10:42:47.271Z,101836.48
2019-04-01T10:45:12.665Z,101831.15
2019-04-01T10:47:37.350Z,101827.27
2019-04-01T10:50:01.859Z,101827.78
2019-04-01T10:52:26.257Z,101821.08
2019-04-01T10:54:50.719Z,101814.23
2019-04-01T10:57:15.127Z,101815.75
2019-04-01T10:59:39.630Z,101815.57
2019-04-01T11:02:05.815Z,101804.32
2019-04-01T11:04:30.305Z,101804.13
2019-04-01T11:06:54.967Z,101805.44
2019-04-01T11:09:19.474Z,101799.30
2019-04-01T11:11:43.974Z,101801.75
2019-04-01T11:14:08.430Z,101789.66
2019-04-01T11:16:33.706Z,101793.81
2019-04-01T11:18:58.434Z,101786.84
2019-04-01T11:21:22.892Z,101783.44
2019-04-01T11:23:47.343Z,101787.58
2019-04-01T11:26:11.851Z,101793.46
2019-04-01T11:28:36.364Z,101781.14
2019-04-01T11:31:00.864Z,101778.83
2019-04-01T11:33:25.379Z,101773.24
2019-04-01T11:35:49.929Z,101764.80
2019-04-01T11:38:14.486Z,101758.66
2019-04-01T11:40:39.204Z,101764.44
2019-04-01T11:43:05.134Z,101761.05
2019-04-01T11:45:30.021Z,101749.09
2019-04-01T11:47:54.501Z,101757.99
2019-04-01T11:50:19.000Z,101749.84
2019-04-01T11:52:43.555Z,101750.66
2019-04-01T11:55:09.241Z,101750.62
2019-04-01T11:57:34.268Z,101742.36
2019-04-01T11:59:58.703Z,101739.02
2019-04-01T12:02:23.820Z,101735.08
2019-04-01T12:04:48.316Z,101733.75
2019-04-01T12:07:12.784Z,101730.62
2019-04-01T12:09:37.295Z,101718.77
2019-04-01T12:12:03.306Z,101718.92
2019-04-01T12:14:27.974Z,101710.53
2019-04-01T12:16:52.473Z,101714.02
2019-04-01T12:19:18.280Z,101704.37
2019-04-01T12:21:42.879Z,101705.28
2019-04-01T12:24:07.433Z,101693.94
2019-04-01T12:26:31.920Z,101693.82
2019-04-01T12:28:56.489Z,101677.77
2019-04-01T12:31:21.766Z,101688.41
2019-04-01T12:33:47.650Z,101679.02
2019-04-01T12:36:15.405Z,101678.52
2019-04-01T12:38:41.476Z,101670.22
2019-04-01T12:41:06.035Z,101657.82
2019-04-01T12:43:30.541Z,101645.33
2019-04-01T12:45:55.310Z,101652.39
2019-04-01T12:48:19.718Z,101648.70
2019-04-01T12:50:44.136Z,101645.14
2019-04-01T12:53:09.383Z,101645.26
2019-04-01T12:55:33.958Z,101640.39
2019-04-01T12:57:58.355Z,101631.75
2019-04-01T13:00:23.291Z,101630.92
2019-04-01T13:02:47.724Z,101628.34
2019-04-01T13:05:12.311Z,101622.91
2019-04-01T13:07:36.724Z,101606.91
2019-04-01T13:10:01.162Z,101599.44
2019-04-01T13:12:27.418Z,101598.31
2019-04-01T13:14:55.313Z,101598.00
2019-04-01T13:17:17.882Z,101594.58
2019-04-01T13:19:42.293Z,101592.61
2019-04-01T13:22:06.740Z,101587.61
2019-04-01T13:24:31.201Z,101583.98
2019-04-01T13:26:55.620Z,101584.31
2019-04-01T13:29:20.096Z,101580.46
2019-04-01T13:31:44.527Z,101568.22
2019-04-01T13:34:08.948Z,101567.23
2019-04-01T13:36:33.389Z,101568.08
2019-04-01T13:38:57.802Z,101565.49
2019-04-01T13:41:25.122Z,101558.30
2019-04-01T13:43:48.397Z,101554.28
2019-04-01T13:46:12.815Z,101547.75
2019-04-01T13:48:37.318Z,101536.86
2019-04-01T13:51:01.786Z,101533.02
2019-04-01T13:53:26.811Z,101536.10
2019-04-01T13:55:51.177Z,101533.26
2019-04-01T13:58:17.623Z,101525.08
2019-04-01T14:00:41.744Z,101522.53
2019-04-01T14:03:06.300Z,101528.56
2019-04-01T14:05:30.707Z,101517.53
2019-04-01T14:07:55.127Z,101510.17
2019-04-01T14:10:19.676Z,101500.94
2019-04-01T14:12:44.103Z,101510.23
2019-04-01T14:15:09.661Z,101501.61
2019-04-01T14:17:34.161Z,101492.81
2019-04-01T14:19:58.638Z,101485.48
2019-04-01T14:22:23.135Z,101480.58
2019-04-01T14:24:47.633Z,101479.45
2019-04-01T14:27:12.618Z,101482.95
2019-04-01T14:29:37.134Z,101465.25
2019-04-01T14:32:01.555Z,101466.41
2019-04-01T14:34:26.025Z,101456.34
2019-04-01T14:36:50.419Z,101454.13
2019-04-01T14:39:14.945Z,101453.50
2019-04-01T14:41:39.441Z,101444.43
2019-04-01T14:44:03.943Z,101441.80
2019-04-01T14:46:28.355Z,101435.75
2019-04-01T14:48:52.788Z,101429.51
2019-04-01T14:51:17.270Z,101429.70
2019-04-01T14:53:41.715Z,101423.72
2019-04-01T14:56:06.204Z,101421.44
2019-04-01T14:58:30.723Z,101413.75
2019-04-01T15:00:55.160Z,101410.89
2019-04-01T15:03:19.720Z,101413.31
2019-04-01T15:05:44.315Z,101398.84
2019-04-01T15:08:08.805Z,101398.73
2019-04-01T15:10:33.282Z,101402.97
2019-04-01T15:13:05.019Z,101397.97
2019-04-01T15:15:23.917Z,101392.11
2019-04-01T15:17:48.418Z,101391.86
2019-04-01T15:20:13.382Z,101379.41
2019-04-01T15:22:37.922Z,101382.78
2019-04-01T15:25:02.371Z,101383.11
2019-04-01T15:27:26.865Z,101380.28
2019-04-01T15:29:51.328Z,101377.42
2019-04-01T15:32:15.889Z,101370.31
2019-04-01T15:34:40.409Z,101364.63
2019-04-01T15:37:04.908Z,101365.64
2019-04-01T15:39:29.386Z,101353.80
2019-04-01T15:41:53.798Z,101356.59
2019-04-01T15:44:18.218Z,101349.95
2019-04-01T15:46:42.740Z,101343.45
2019-04-01T15:49:11.029Z,101338.53
2019-04-01T15:51:33.389Z,101343.22
2019-04-01T15:54:01.173Z,101328.47
2019-04-01T15:56:24.013Z,101324.47
2019-04-01T16:01:21.899Z,101306.84
2019-04-01T16:03:46.315Z,101316.27
2019-04-01T16:06:10.759Z,101313.48
2019-04-01T16:08:35.305Z,101315.23
2019-04-01T16:10:59.738Z,101310.75
2019-04-01T16:13:24.154Z,101305.77
2019-04-01T16:15:48.680Z,101299.55
2019-04-01T16:18:13.106Z,101301.22
2019-04-01T16:20:37.542Z,101299.50
2019-04-01T16:23:02.105Z,101259.00
2019-04-01T16:25:26.605Z,101292.92
2019-04-01T16:27:51.058Z,101296.19
2019-04-01T16:30:15.598Z,101288.98
2019-04-01T16:32:40.082Z,101291.01
2019-04-01T16:35:06.986Z,101290.34
2019-04-01T16:37:31.440Z,101288.66
2019-04-01T16:39:55.858Z,101292.72
2019-04-01T16:42:20.285Z,101281.02
2019-04-01T16:44:44.880Z,101289.84
2019-04-01T16:47:10.302Z,101291.48
2019-04-01T16:49:36.113Z,101287.52
2019-04-01T16:52:00.813Z,101287.38
2019-04-01T16:54:25.274Z,101285.27
2019-04-01T16:56:49.699Z,101286.54
2019-04-01T16:59:15.058Z,101289.29
2019-04-01T17:01:41.523Z,101288.77
2019-04-01T17:04:05.825Z,101281.17
2019-04-01T17:06:30.312Z,101281.83
2019-04-01T17:08:56.094Z,101249.13
2019-04-01T17:11:20.562Z,101280.19
2019-04-01T17:13:45.070Z,101288.47
2019-04-01T17:16:09.631Z,101282.34
2019-04-01T17:18:34.532Z,101284.29
2019-04-01T17:20:58.996Z,101284.79
2019-04-01T17:23:23.491Z,101280.32
2019-04-01T17:25:47.892Z,101280.38
2019-04-01T17:28:12.311Z,101281.08
2019-04-01T17:30:36.719Z,101275.86
2019-04-01T17:33:01.205Z,101276.53
2019-04-01T17:35:25.686Z,101272.77
2019-04-01T17:37:50.267Z,101273.52
2019-04-01T17:40:17.071Z,101270.72
2019-04-01T17:42:41.329Z,101274.66
2019-04-01T17:45:23.109Z,101277.50
2019-04-01T17:47:47.645Z,101280.58
2019-04-01T17:50:12.398Z,101274.27
2019-04-01T17:52:36.910Z,101280.08
2019-04-01T17:55:01.323Z,101273.30
2019-04-01T17:57:25.794Z,101270.16
2019-04-01T17:59:50.331Z,101272.00
2019-04-01T18:02:17.782Z,101268.92
2019-04-01T18:04:42.580Z,101273.25
2019-04-01T18:07:07.549Z,101266.54
2019-04-01T18:09:32.200Z,101269.14
2019-04-01T18:11:56.694Z,101269.61
2019-04-01T18:14:21.148Z,101266.16
2019-04-01T18:16:45.566Z,101270.56
2019-04-01T18:19:10.072Z,101275.70
2019-04-01T18:21:34.471Z,101267.53
2019-04-01T18:23:58.914Z,101268.77
2019-04-01T18:26:23.319Z,101267.86
2019-04-01T18:28:47.743Z,101276.18
2019-04-01T18:31:12.275Z,101273.93
2019-04-01T18:33:36.698Z,101277.80
2019-04-01T18:36:01.175Z,101273.41
2019-04-01T18:38:25.600Z,101276.07
2019-04-01T18:40:50.160Z,101274.47
2019-04-01T18:43:14.615Z,101274.25
2019-04-01T18:45:39.035Z,101274.86
2019-04-01T18:48:03.460Z,101270.64
2019-04-01T18:50:27.884Z,101265.39
2019-04-01T18:52:52.403Z,101264.40
2019-04-01T18:55:16.901Z,101260.56
2019-04-01T18:57:41.309Z,101261.09
2019-04-01T19:00:11.095Z,101255.95
2019-04-01T19:02:36.473Z,101254.83
2019-04-01T19:05:00.885Z,101252.45
2019-04-01T19:07:25.520Z,101256.56
2019-04-01T19:09:50.054Z,101254.30
2019-04-01T19:12:14.467Z,101248.80
2019-04-01T19:14:39.275Z,101243.33
2019-04-01T19:17:04.858Z,101250.91
2019-04-01T19:19:29.427Z,101256.05
2019-04-01T19:21:53.908Z,101257.87
2019-04-01T19:24:18.340Z,101255.52
2019-04-01T19:26:42.753Z,101254.91
2019-04-01T19:29:07.177Z,101248.55
2019-04-01T19:31:31.773Z,101252.72
2019-04-01T19:33:56.187Z,101252.18
2019-04-01T19:36:20.615Z,101244.01
2019-04-01T19:38:45.133Z,101247.56
2019-04-01T19:41:09.631Z,101249.06
2019-04-01T19:43:34.103Z,101249.33
2019-04-01T19:45:58.525Z,101252.48
2019-04-01T19:48:23.701Z,101251.30
2019-04-01T19:50:48.297Z,101255.55
2019-04-01T19:53:12.708Z,101250.75
2019-04-01T19:55:37.124Z,101246.98
2019-04-01T19:58:04.834Z,101241.53
2019-04-01T20:00:29.580Z,101247.77
2019-04-01T20:02:53.831Z,101246.59
2019-04-01T20:05:18.263Z,101238.38
2019-04-01T20:07:44.104Z,101245.14
2019-04-01T20:10:08.937Z,101241.22
2019-04-01T20:12:33.342Z,101239.84
2019-04-01T20:14:58.913Z,101238.98
2019-04-01T20:17:23.618Z,101237.12
2019-04-01T20:19:48.211Z,101231.28
2019-04-01T20:22:12.720Z,101230.00
2019-04-01T20:24:37.194Z,101223.68
2019-04-01T20:27:01.678Z,101227.17
2019-04-01T20:29:26.102Z,101220.45
2019-04-01T20:31:50.603Z,101219.36
2019-04-01T20:34:19.790Z,101217.88
2019-04-01T20:36:41.210Z,101222.25
2019-04-01T20:39:07.922Z,101206.59
2019-04-01T20:41:32.479Z,101207.53
2019-04-01T20:43:56.955Z,101199.48
2019-04-01T20:46:21.445Z,101201.33
2019-04-01T20:48:45.842Z,101196.50
2019-04-01T20:51:10.320Z,101190.14
2019-04-01T20:53:34.743Z,101186.48
2019-04-01T20:55:59.161Z,101180.66
2019-04-01T20:58:23.588Z,101181.94
2019-04-01T21:00:48.108Z,101177.23
2019-04-01T21:03:12.577Z,101172.91
2019-04-01T21:05:36.999Z,101169.61
2019-04-01T21:08:01.412Z,101162.91
2019-04-01T21:10:25.824Z,101169.72
2019-04-01T21:12:50.276Z,101166.88
2019-04-01T21:15:15.157Z,101160.02
2019-04-01T21:17:39.613Z,101154.50
2019-04-01T21:20:06.567Z,101155.84
2019-04-01T21:22:30.997Z,101158.48
2019-04-01T21:24:55.415Z,101152.92
2019-04-01T21:27:19.843Z,101144.55
2019-04-01T21:29:44.322Z,101144.78
2019-04-01T21:32:08.807Z,101145.69
2019-04-01T21:34:33.225Z,101139.88
2019-04-01T21:36:57.634Z,101145.95
2019-04-01T21:39:22.059Z,101144.82
2019-04-01T21:41:46.458Z,101142.89
2019-04-01T21:44:10.875Z,101131.34
2019-04-01T21:46:35.410Z,101128.34
2019-04-01T21:48:59.887Z,101128.47
2019-04-01T21:51:24.260Z,101122.56
2019-04-01T21:53:48.671Z,101123.81
2019-04-01T21:56:13.069Z,101125.46
2019-04-01T21:58:37.481Z,101119.59
2019-04-01T22:01:02.107Z,101119.59
2019-04-01T22:03:26.646Z,101112.58
2019-04-01T22:05:51.189Z,101106.84
2019-04-01T22:08:15.673Z,101102.43
2019-04-01T22:10:40.130Z,101099.89
2019-04-01T22:13:04.677Z,101094.41
2019-04-01T22:15:29.161Z,101085.03
2019-04-01T22:17:53.560Z,101084.94
2019-04-01T22:20:17.954Z,101079.79
2019-04-01T22:22:42.338Z,101079.43
2019-04-01T22:25:06.894Z,101078.16
2019-04-01T22:27:31.280Z,101074.79
2019-04-01T22:29:55.691Z,101075.62
2019-04-01T22:32:20.088Z,101072.92
2019-04-01T22:34:44.504Z,101071.42
2019-04-01T22:37:08.989Z,101065.35
2019-04-01T22:39:33.407Z,101054.92
2019-04-01T22:41:58.468Z,101052.82
2019-04-01T22:44:23.864Z,101048.11
2019-04-01T22:46:48.448Z,101041.95
2019-04-01T22:49:12.876Z,101037.06
2019-04-01T22:51:37.561Z,101040.05
2019-04-01T22:54:02.325Z,101027.41
2019-04-01T22:56:27.261Z,101030.13
2019-04-01T22:58:52.140Z,101016.70
2019-04-01T23:01:16.559Z,101018.60
2019-04-01T23:03:41.200Z,101013.50
2019-04-01T23:06:06.283Z,101009.80
2019-04-01T23:08:31.570Z,101009.47
2019-04-01T23:10:56.527Z,101005.72
2019-04-01T23:13:21.350Z,101002.52
2019-04-01T23:15:45.778Z,100997.02
2019-04-01T23:18:10.187Z,101002.88
2019-04-01T23:20:34.595Z,101005.09
2019-04-01T23:22:58.977Z,100997.78
2019-04-01T23:25:23.474Z,100994.55
2019-04-01T23:27:47.873Z,100994.11
2019-04-01T23:30:12.887Z,100993.45
2019-04-01T23:32:37.305Z,100991.15
2019-04-01T23:35:01.734Z,100989.85
2019-04-01T23:37:26.135Z,100986.44
2019-04-01T23:39:50.547Z,100982.77
2019-04-01T23:42:14.955Z,100985.92
2019-04-01T23:44:39.356Z,100982.83
2019-04-01T23:47:03.869Z,100977.62
2019-04-01T23:49:28.262Z,100979.13
2019-04-01T23:51:52.759Z,100973.10
2019-04-01T23:54:17.175Z,100968.59
2019-04-01T23:56:41.598Z,100966.51
2019-04-01T23:59:06.068Z,100965.65
